Time;durP1;ratioP1;P1;durP2;ratioP2;P2;SDS_P1;SDS_P2;PMS_P1;PMS_P2;Temp;Humidity;BMP_temperature;BMP_pressure;BME280_temperature;BME280_humidity;BME280_pressure;Samples;Min_cycle;Max_cycle;Signal;HPM_P1;HPM_P2
2023/01/26 00:00:03;;;;;;;19.15;15.43;;;;;;;2.94;68.73;102442.50;5074451;28;20521;-75
2023/01/26 00:02:29;;;;;;;35.33;21.92;;;;;;;2.94;68.45;102434.47;5075441;28;20060;-75
2023/01/26 00:04:54;;;;;;;17.95;16.30;;;;;;;2.93;68.73;102435.50;5075212;28;20420;-75
2023/01/26 00:07:19;;;;;;;13.32;12.40;;;;;;;2.93;68.82;102424.81;5076018;28;20046;-75
2023/01/26 00:09:45;;;;;;;33.30;19.90;;;;;;;2.93;68.36;102432.81;5074118;28;20068;-75
2023/01/26 00:12:10;;;;;;;29.88;20.83;;;;;;;2.93;68.73;102424.81;5074349;28;20036;-75
2023/01/26 00:14:48;;;;;;;18.25;15.88;;;;;;;2.94;68.68;102420.31;5075494;28;20056;-75
2023/01/26 00:17:15;;;;;;;18.70;13.57;;;;;;;2.94;68.54;102417.63;5075263;28;20343;-75
2023/01/26 00:19:41;;;;;;;24.60;19.00;;;;;;;2.93;68.67;102419.47;5075122;28;20040;-75
2023/01/26 00:22:06;;;;;;;19.30;17.17;;;;;;;2.93;68.61;102411.47;5074943;28;20037;-75
2023/01/26 00:24:31;;;;;;;18.40;16.35;;;;;;;2.93;68.27;102410.63;5073838;28;20039;-75
2023/01/26 00:26:57;;;;;;;20.40;17.15;;;;;;;2.92;68.61;102409.78;5075144;28;20058;-75
2023/01/26 00:29:22;;;;;;;15.20;13.80;;;;;;;2.94;68.89;102409.63;5075127;28;20403;-75
2023/01/26 00:31:47;;;;;;;27.17;20.75;;;;;;;2.93;68.70;102405.28;5074979;28;20036;-75
2023/01/26 00:34:13;;;;;;;14.07;12.73;;;;;;;2.92;68.76;102399.09;5075329;28;20054;-75
2023/01/26 00:36:38;;;;;;;29.02;17.52;;;;;;;2.92;68.68;102393.75;5075020;28;20551;-75
2023/01/26 00:39:03;;;;;;;16.00;14.80;;;;;;;2.91;68.43;102405.44;5074869;28;20036;-75
2023/01/26 00:44:13;;;;;;;13.80;12.68;;;;;;;2.91;68.66;102396.59;5073858;28;20400;-75
2023/01/26 00:46:38;;;;;;;15.20;13.85;;;;;;;2.91;68.34;102383.25;5074581;28;20032;-75
2023/01/26 00:49:03;;;;;;;13.93;12.73;;;;;;;2.90;68.61;102382.41;5073363;28;20128;-75
2023/01/26 00:51:29;;;;;;;20.00;17.50;;;;;;;2.90;68.56;102382.41;5073101;28;20032;-75
2023/01/26 00:53:54;;;;;;;26.63;18.42;;;;;;;2.91;68.76;102386.75;5074806;28;20090;-75
2023/01/26 00:56:20;;;;;;;16.27;15.02;;;;;;;2.90;68.51;102387.75;5074835;28;20032;-75
2023/01/26 00:58:45;;;;;;;26.80;18.83;;;;;;;2.90;68.67;102376.22;5073082;28;20421;-75
2023/01/26 01:01:11;;;;;;;16.88;14.13;;;;;;;2.91;68.45;102383.25;5073616;28;20036;-75
2023/01/26 01:03:36;;;;;;;15.63;14.27;;;;;;;2.91;68.45;102376.06;5074240;28;20044;-75
2023/01/26 01:06:01;;;;;;;20.80;13.07;;;;;;;2.90;69.05;102371.75;5074373;28;20075;-75
2023/01/26 01:08:27;;;;;;;24.55;18.48;;;;;;;2.91;68.37;102383.25;5073042;28;20404;-75
2023/01/26 01:11:02;;;;;;;18.58;15.93;;;;;;;2.91;68.72;102375.25;5074038;28;20028;-75
2023/01/26 01:13:27;;;;;;;39.47;21.85;;;;;;;2.90;68.83;102366.41;5073475;28;20028;-75
2023/01/26 01:15:53;;;;;;;22.05;18.15;;;;;;;2.90;68.54;102374.41;5074064;28;20043;-75
2023/01/26 01:18:18;;;;;;;15.88;14.57;;;;;;;2.90;68.87;102366.41;5056064;28;20606;-75
2023/01/26 01:20:43;;;;;;;21.83;19.80;;;;;;;2.90;68.83;102368.19;5073044;28;20028;-75
2023/01/26 01:23:09;;;;;;;14.07;12.93;;;;;;;2.90;68.43;102369.06;5073134;28;20068;-75
2023/01/26 01:25:34;;;;;;;18.85;15.57;;;;;;;2.90;68.66;102376.22;5073952;28;20581;-75
2023/01/26 01:27:59;;;;;;;13.05;11.88;;;;;;;2.89;68.72;102363.88;5074161;28;20054;-75
2023/01/26 01:30:25;;;;;;;16.73;15.05;;;;;;;2.90;68.80;102373.53;5073924;28;20095;-75
2023/01/26 01:32:51;;;;;;;14.32;13.10;;;;;;;2.90;68.55;102369.06;5073528;28;20161;-75
2023/01/26 01:35:16;;;;;;;19.50;15.93;;;;;;;2.89;68.84;102370.03;5074169;28;20048;-75
2023/01/26 01:37:41;;;;;;;23.30;17.00;;;;;;;2.89;68.69;102380.72;5073596;28;20032;-75
2023/01/26 01:40:11;;;;;;;30.73;19.42;;;;;;;2.89;68.65;102386.06;5073702;28;20535;-75
2023/01/26 01:42:36;;;;;;;19.38;14.57;;;;;;;2.90;68.89;102387.75;5073789;28;20029;-75
2023/01/26 01:45:27;;;;;;;22.55;19.02;;;;;;;2.89;68.78;102386.06;5074163;28;20089;-76
2023/01/26 01:47:58;;;;;;;16.48;14.95;;;;;;;2.89;68.70;102382.56;5073444;28;20024;-75
2023/01/26 01:50:24;;;;;;;16.05;14.55;;;;;;;2.87;68.80;102380.03;5072847;28;20033;-75
2023/01/26 01:52:51;;;;;;;19.55;16.75;;;;;;;2.88;68.63;102381.72;5072920;28;20025;-75
2023/01/26 01:55:16;;;;;;;24.08;18.50;;;;;;;2.88;68.50;102373.72;5073841;28;20033;-76
2023/01/26 01:57:51;;;;;;;13.93;12.93;;;;;;;2.87;68.53;102371.19;5073563;28;20090;-75
2023/01/26 02:00:20;;;;;;;11.52;10.70;;;;;;;2.88;68.97;102367.53;5072565;28;20067;-75
2023/01/26 02:05:41;;;;;;;20.92;16.27;;;;;;;2.88;68.53;102362.22;5073320;28;20067;-76
2023/01/26 02:08:08;;;;;;;21.50;18.02;;;;;;;2.87;68.55;102363.19;5073443;28;20048;-76
2023/01/26 02:10:35;;;;;;;28.85;15.95;;;;;;;2.88;68.59;102355.03;5073028;28;20024;-76
2023/01/26 02:13:02;;;;;;;18.33;14.30;;;;;;;2.88;68.60;102362.22;5073613;28;20032;-76
2023/01/26 02:15:29;;;;;;;13.27;11.93;;;;;;;2.87;68.83;102356.00;5073688;28;20448;-76
2023/01/26 02:17:55;;;;;;;15.50;14.00;;;;;;;2.87;68.55;102357.84;5073256;28;20032;-76
2023/01/26 02:20:27;;;;;;;12.48;11.38;;;;;;;2.87;68.75;102349.84;5073433;28;20115;-76
2023/01/26 02:23:25;;;;;;;24.25;17.33;;;;;;;2.86;68.87;102346.31;5073375;28;20028;-76
2023/01/26 02:25:53;;;;;;;17.95;15.73;;;;;;;2.87;68.53;102341.81;5073310;28;20089;-76
2023/01/26 02:28:28;;;;;;;13.45;12.45;;;;;;;2.86;68.67;102348.16;5072090;28;20029;-76
2023/01/26 02:30:55;;;;;;;25.75;18.00;;;;;;;2.86;68.63;102353.50;5073499;28;20025;-75
2023/01/26 02:33:23;;;;;;;16.05;14.40;;;;;;;2.86;68.61;102350.84;5073750;28;20158;-75
2023/01/26 02:35:49;;;;;;;22.15;16.75;;;;;;;2.86;68.90;102345.50;5073196;28;20028;-74
2023/01/26 02:38:15;;;;;;;12.35;11.45;;;;;;;2.85;68.56;102344.66;5071929;28;20040;-75
2023/01/26 02:40:54;;;;;;;14.45;13.45;;;;;;;2.84;68.79;102342.97;5073490;28;20028;-75
2023/01/26 02:43:22;;;;;;;14.32;13.23;;;;;;;2.85;69.13;102343.81;5072809;28;20033;-75
2023/01/26 02:45:48;;;;;;;15.93;14.73;;;;;;;2.85;69.04;102343.81;5073361;28;20488;-74
2023/01/26 02:49:45;;;;;;;20.85;15.77;;;;;;;2.85;68.65;102343.81;5072194;28;20290;-74
2023/01/26 02:50:58;;;;;;;18.58;15.93;;;;;;;2.84;69.01;102340.31;5072740;28;20123;-75
2023/01/26 02:53:24;;;;;;;16.95;15.43;;;;;;;2.84;69.07;102342.13;5071806;28;20112;-75
2023/01/26 02:55:50;;;;;;;14.15;13.00;;;;;;;2.84;68.79;102337.63;5073005;28;20460;-75
2023/01/26 02:58:16;;;;;;;20.33;14.00;;;;;;;2.84;68.69;102344.81;5073405;28;20035;-75
2023/01/26 03:00:42;;;;;;;24.98;16.67;;;;;;;2.85;69.15;102344.66;5072110;28;20032;-75
2023/01/26 03:03:13;;;;;;;18.35;15.20;;;;;;;2.84;69.09;102339.47;5072904;28;20049;-75
2023/01/26 03:05:39;;;;;;;15.60;14.43;;;;;;;2.84;68.67;102336.81;5073538;28;20074;-75
2023/01/26 03:08:07;;;;;;;18.83;17.23;;;;;;;2.84;68.84;102337.63;5072990;28;20040;-75
2023/01/26 03:10:33;;;;;;;16.17;14.82;;;;;;;2.84;69.19;102340.31;5071604;28;20024;-75
2023/01/26 03:12:58;;;;;;;12.35;11.32;;;;;;;2.84;69.29;102334.97;5072812;28;20067;-75
2023/01/26 03:15:42;;;;;;;18.08;16.20;;;;;;;2.85;69.13;102334.00;5071762;28;20099;-75
2023/01/26 03:29:13;;;;;;;20.02;17.88;;;;;;;2.83;69.28;102329.78;5076187;28;20403;-75
2023/01/26 03:31:39;;;;;;;12.88;11.77;;;;;;;2.82;69.20;102328.94;5075559;28;20032;-75
2023/01/26 03:34:04;;;;;;;15.20;13.77;;;;;;;2.82;69.14;102323.59;5076435;28;20186;-75
2023/01/26 03:36:30;;;;;;;11.48;10.77;;;;;;;2.84;69.01;102331.47;5076084;28;20505;-76
2023/01/26 03:38:55;;;;;;;18.77;15.20;;;;;;;2.84;69.13;102323.44;5074856;28;20048;-76
2023/01/26 03:57:44;;;;;;;16.02;13.05;;;;;;;2.82;68.84;102318.25;5076042;28;20412;-74
2023/01/26 04:00:11;;;;;;;14.52;13.00;;;;;;;2.82;69.30;102312.91;5075544;28;20033;-77
2023/01/26 04:08:23;;;;;;;15.55;14.23;;;;;;;2.83;68.99;102319.97;5075292;28;20048;-74
2023/01/26 04:10:50;;;;;;;13.18;11.27;;;;;;;2.82;69.05;102315.59;5075445;28;20025;-74
2023/01/26 04:21:37;;;;;;;15.20;13.93;;;;;;;2.82;68.87;102320.94;5075788;28;20027;-75
2023/01/26 04:24:13;;;;;;;20.73;14.90;;;;;;;2.82;68.94;102323.59;5075230;28;20032;-74
2023/01/26 04:26:40;;;;;;;14.65;13.55;;;;;;;2.84;69.18;102326.97;5075186;28;20377;-77
2023/01/26 04:29:08;;;;;;;14.60;13.27;;;;;;;2.83;69.15;102325.28;5073812;28;20063;-76
2023/01/26 04:31:34;;;;;;;16.63;15.03;;;;;;;2.85;68.99;102317.13;5075093;28;20072;-77
2023/01/26 04:34:00;;;;;;;16.58;12.82;;;;;;;2.85;69.01;102325.13;5074723;28;20067;-77
2023/01/26 04:36:26;;;;;;;14.50;13.05;;;;;;;2.85;69.04;102322.44;5074702;28;20024;-75
2023/01/26 04:38:51;;;;;;;17.83;13.60;;;;;;;2.85;68.88;102325.97;5075044;28;20039;-75
2023/01/26 04:41:17;;;;;;;15.68;13.98;;;;;;;2.86;69.14;102322.31;5074946;28;20035;-77
2023/01/26 04:43:42;;;;;;;13.30;12.15;;;;;;;2.85;68.98;102323.31;5074753;28;20037;-75
2023/01/26 04:46:08;;;;;;;15.35;13.65;;;;;;;2.85;68.99;102312.63;5074693;28;20064;-74
2023/01/26 04:48:34;;;;;;;13.57;12.23;;;;;;;2.86;69.16;102313.47;5074693;28;20388;-75
2023/01/26 04:51:02;;;;;;;16.73;15.23;;;;;;;2.85;68.95;102325.97;5056689;28;20025;-75
2023/01/26 04:53:28;;;;;;;21.67;14.48;;;;;;;2.86;69.16;102316.13;5073633;28;20437;-74
2023/01/26 04:55:54;;;;;;;21.30;13.68;;;;;;;2.86;69.16;102324.16;5072916;28;20032;-74
2023/01/26 04:58:19;;;;;;;15.90;14.45;;;;;;;2.86;69.00;102318.81;5073672;28;20035;-75
2023/01/26 05:00:50;;;;;;;12.93;11.38;;;;;;;2.86;68.89;102316.13;5074956;28;20020;-74
2023/01/26 05:03:16;;;;;;;19.02;15.23;;;;;;;2.87;69.18;102320.47;5074524;28;20135;-77
2023/01/26 05:05:41;;;;;;;13.95;12.88;;;;;;;2.86;69.20;102316.97;5073125;28;20064;-77
2023/01/26 05:08:06;;;;;;;17.45;15.85;;;;;;;2.87;69.04;102315.97;5074728;28;20032;-77
2023/01/26 05:10:32;;;;;;;14.45;12.98;;;;;;;2.86;69.22;102308.97;5072955;28;20039;-75
2023/01/26 05:12:58;;;;;;;15.70;14.25;;;;;;;2.87;69.23;102307.13;5074210;28;20031;-74
2023/01/26 05:15:24;;;;;;;19.42;16.42;;;;;;;2.87;68.93;102312.47;5073033;28;20043;-75
2023/01/26 05:17:49;;;;;;;17.38;13.38;;;;;;;2.86;69.01;102308.97;5074080;28;20029;-75
2023/01/26 05:20:15;;;;;;;16.42;15.00;;;;;;;2.87;69.06;102309.81;5074201;28;20068;-74
2023/01/26 05:22:41;;;;;;;19.70;15.32;;;;;;;2.88;68.99;102301.66;5074110;28;20040;-75
2023/01/26 05:25:06;;;;;;;18.52;14.48;;;;;;;2.88;69.25;102309.66;5074812;28;20033;-75
2023/01/26 05:27:32;;;;;;;18.20;15.88;;;;;;;2.88;69.23;102311.50;5074468;28;20459;-75
2023/01/26 05:30:00;;;;;;;17.33;15.23;;;;;;;2.87;69.19;102318.63;5073981;28;20519;-75
2023/01/26 05:32:30;;;;;;;22.50;15.18;;;;;;;2.87;69.05;102307.97;5073611;28;20537;-76
2023/01/26 05:34:56;;;;;;;18.63;15.18;;;;;;;2.88;69.09;102315.00;5072577;28;20111;-75
2023/01/26 05:37:27;;;;;;;19.27;17.30;;;;;;;2.87;69.26;102307.97;5073659;28;20047;-76
2023/01/26 05:39:53;;;;;;;12.43;11.32;;;;;;;2.88;69.30;102316.84;5072658;28;20028;-75
2023/01/26 05:42:18;;;;;;;16.60;15.13;;;;;;;2.89;69.00;102321.16;5055718;28;20521;-75
2023/01/26 05:44:44;;;;;;;17.00;14.73;;;;;;;2.88;69.14;102317.66;5073772;28;20044;-76
2023/01/26 05:47:09;;;;;;;17.42;14.95;;;;;;;2.88;69.34;102322.16;5071868;28;20032;-76
2023/01/26 05:49:37;;;;;;;15.48;13.82;;;;;;;2.88;69.12;102325.66;5073846;28;20032;-75
2023/01/26 05:52:08;;;;;;;13.05;11.80;;;;;;;2.88;68.91;102322.16;5072395;28;20376;-75
2023/01/26 05:54:34;;;;;;;18.90;14.55;;;;;;;2.88;68.88;102325.66;5073747;28;20500;-75
2023/01/26 05:56:59;;;;;;;16.42;14.82;;;;;;;2.89;69.16;102330.00;5073313;28;20102;-75
2023/01/26 05:59:24;;;;;;;16.55;14.45;;;;;;;2.89;69.28;102330.00;5072066;28;20115;-75
2023/01/26 06:01:50;;;;;;;12.43;11.55;;;;;;;2.89;68.98;102332.69;5073392;28;20033;-75
2023/01/26 06:04:15;;;;;;;14.40;12.90;;;;;;;2.89;69.40;102330.00;5073214;28;20411;-77
2023/01/26 06:06:40;;;;;;;13.15;12.13;;;;;;;2.89;69.23;102338.00;5073437;28;20037;-77
2023/01/26 06:09:06;;;;;;;13.85;12.73;;;;;;;2.89;69.11;102335.34;5071972;28;20039;-75
2023/01/26 06:11:32;;;;;;;17.70;14.15;;;;;;;2.88;69.10;102335.50;5072005;28;20037;-75
2023/01/26 06:13:57;;;;;;;19.75;14.30;;;;;;;2.89;69.37;102340.69;5073802;28;20021;-75
2023/01/26 06:16:22;;;;;;;16.23;12.30;;;;;;;2.89;69.42;102339.84;5073361;28;20037;-75
2023/01/26 06:18:48;;;;;;;14.30;11.77;;;;;;;2.89;69.34;102343.34;5072005;28;20128;-75
2023/01/26 06:21:14;;;;;;;17.92;14.73;;;;;;;2.90;69.49;102344.19;5073910;28;20029;-75
2023/01/26 06:23:39;;;;;;;15.20;13.63;;;;;;;2.89;69.35;102338.00;5073202;28;20024;-75
2023/01/26 06:26:06;;;;;;;20.52;14.35;;;;;;;2.89;69.26;102339.84;5071804;28;20514;-76
2023/01/26 06:28:31;;;;;;;15.48;14.18;;;;;;;2.90;69.07;102341.50;5072006;28;20036;-76
2023/01/26 06:31:01;;;;;;;14.75;13.35;;;;;;;2.90;69.10;102346.84;5073484;28;20384;-76
2023/01/26 06:33:27;;;;;;;17.08;15.48;;;;;;;2.90;69.25;102345.03;5073162;28;20066;-75
2023/01/26 06:35:53;;;;;;;17.25;13.65;;;;;;;2.90;69.32;102349.53;5073707;28;20060;-76
2023/01/26 06:38:19;;;;;;;16.88;14.43;;;;;;;2.90;69.37;102346.84;5055981;28;20035;-76
2023/01/26 06:40:44;;;;;;;16.90;11.52;;;;;;;2.90;69.40;102347.72;5072306;28;20032;-75
2023/01/26 06:43:09;;;;;;;18.38;14.80;;;;;;;2.90;69.41;102342.38;5073650;28;20067;-76
2023/01/26 06:45:35;;;;;;;15.23;13.43;;;;;;;2.90;69.18;102355.72;5055308;28;20101;-76
2023/01/26 06:48:00;;;;;;;17.73;14.00;;;;;;;2.90;69.39;102347.72;5073063;28;20448;-76
2023/01/26 06:50:31;;;;;;;15.85;14.65;;;;;;;2.90;69.19;102353.06;5073315;28;20031;-76
2023/01/26 06:52:58;;;;;;;16.00;13.32;;;;;;;2.91;69.33;102356.56;5073416;28;20094;-75
2023/01/26 06:55:44;;;;;;;25.45;14.30;;;;;;;2.91;69.27;102349.38;5072771;28;20043;-76
2023/01/26 06:58:10;;;;;;;16.83;12.95;;;;;;;2.91;69.32;102354.72;5075279;28;20052;-75
2023/01/26 07:00:39;;;;;;;16.15;14.48;;;;;;;2.91;69.31;102354.72;5076302;28;20437;-75
2023/01/26 07:03:04;;;;;;;22.15;14.32;;;;;;;2.92;69.26;102352.88;5077040;28;20050;-76
2023/01/26 07:05:30;;;;;;;15.35;13.80;;;;;;;2.91;69.00;102345.88;5058647;28;20111;-75
2023/01/26 07:07:55;;;;;;;13.10;12.00;;;;;;;2.93;69.10;102352.75;5076342;28;20373;-75
2023/01/26 07:10:21;;;;;;;14.82;13.55;;;;;;;2.92;69.13;102353.72;5076285;28;20028;-75
2023/01/26 07:12:46;;;;;;;15.00;13.50;;;;;;;2.92;69.30;102356.38;5074929;28;20108;-74
2023/01/26 07:15:12;;;;;;;18.30;14.93;;;;;;;2.91;69.30;102361.91;5076448;28;20054;-75
2023/01/26 07:17:38;;;;;;;18.45;15.15;;;;;;;2.92;69.09;102366.22;5076452;28;20036;-75
2023/01/26 07:20:05;;;;;;;14.82;13.73;;;;;;;2.90;69.32;102361.06;5076600;28;20498;-75
2023/01/26 07:22:30;;;;;;;15.93;14.27;;;;;;;2.91;69.17;102367.22;5076303;28;20033;-75
2023/01/26 07:24:56;;;;;;;14.73;13.43;;;;;;;2.91;69.17;102360.06;5075253;28;20036;-75
2023/01/26 07:27:21;;;;;;;14.63;13.30;;;;;;;2.92;69.07;102366.22;5075223;28;20059;-75
2023/01/26 07:29:46;;;;;;;14.15;12.73;;;;;;;2.92;69.11;102366.22;5074867;28;20136;-75
2023/01/26 07:32:12;;;;;;;14.38;12.98;;;;;;;2.92;69.55;102364.38;5076234;28;20036;-75
2023/01/26 07:34:37;;;;;;;17.60;15.05;;;;;;;2.91;69.39;102360.06;5074907;28;20033;-75
2023/01/26 07:37:04;;;;;;;15.10;13.57;;;;;;;2.91;69.20;102364.56;5075581;28;20035;-75
2023/01/26 07:39:29;;;;;;;14.77;13.18;;;;;;;2.93;69.44;102362.59;5074837;28;20089;-74
2023/01/26 07:41:55;;;;;;;15.52;14.30;;;;;;;2.92;69.39;102368.91;5076194;28;20025;-74
2023/01/26 07:44:20;;;;;;;16.05;14.43;;;;;;;2.93;69.08;102370.59;5076042;28;20041;-74
2023/01/26 07:46:45;;;;;;;29.33;16.08;;;;;;;2.94;69.02;102366.91;5076093;28;20035;-74
2023/01/26 07:49:11;;;;;;;15.05;13.50;;;;;;;2.92;69.37;102377.75;5074308;28;20044;-74
2023/01/26 07:51:38;;;;;;;15.93;14.43;;;;;;;2.92;69.44;102377.75;5074410;28;20024;-74
2023/01/26 07:54:04;;;;;;;20.67;15.93;;;;;;;2.92;69.40;102380.41;5075505;28;20492;-74
2023/01/26 07:56:30;;;;;;;14.88;13.35;;;;;;;2.92;69.54;102383.06;5075482;28;20025;-73
2023/01/26 07:58:55;;;;;;;14.48;13.35;;;;;;;2.93;69.55;102391.94;5075351;28;20039;-74
2023/01/26 08:01:21;;;;;;;13.88;12.48;;;;;;;2.93;69.34;102387.44;5074211;28;20020;-74
2023/01/26 08:03:49;;;;;;;14.68;12.82;;;;;;;2.93;69.19;102395.44;5074927;28;20389;-74
2023/01/26 08:06:16;;;;;;;14.25;12.98;;;;;;;2.94;69.10;102390.94;5075228;28;20072;-74
2023/01/26 08:08:42;;;;;;;15.45;14.00;;;;;;;2.93;69.08;102392.78;5074466;28;20028;-74
2023/01/26 08:11:08;;;;;;;13.77;12.50;;;;;;;2.94;69.53;102397.13;5075708;28;20058;-73
2023/01/26 08:13:34;;;;;;;16.90;14.27;;;;;;;2.94;69.41;102393.63;5075924;28;20032;-75
2023/01/26 08:16:01;;;;;;;14.48;13.20;;;;;;;2.94;69.15;102399.78;5074710;28;20457;-75
2023/01/26 08:18:27;;;;;;;16.45;14.82;;;;;;;2.95;69.41;102411.31;5073673;28;20542;-74
2023/01/26 08:20:53;;;;;;;15.55;14.18;;;;;;;2.94;69.49;102409.63;5075461;28;20090;-74
2023/01/26 08:23:19;;;;;;;14.25;12.75;;;;;;;2.95;69.42;102408.66;5075094;28;20020;-75
2023/01/26 08:25:45;;;;;;;13.70;12.43;;;;;;;2.94;69.08;102407.78;5074951;28;20044;-74
2023/01/26 08:28:10;;;;;;;16.42;15.02;;;;;;;2.95;69.21;102403.31;5074973;28;20048;-72
2023/01/26 08:30:36;;;;;;;13.70;12.52;;;;;;;2.96;69.44;102410.31;5073591;28;20060;-75
2023/01/26 08:33:02;;;;;;;18.17;12.75;;;;;;;2.96;69.40;102411.16;5073212;28;20029;-75
2023/01/26 08:35:27;;;;;;;14.23;12.85;;;;;;;2.97;69.45;102409.31;5074766;28;20083;-75
2023/01/26 08:37:53;;;;;;;15.80;14.23;;;;;;;2.96;69.11;102411.16;5074250;28;20036;-73
2023/01/26 08:40:18;;;;;;;20.98;14.20;;;;;;;2.97;69.35;102410.19;5073342;28;20035;-73
2023/01/26 08:42:43;;;;;;;17.45;15.60;;;;;;;2.96;69.11;102416.50;5073307;28;20120;-73
2023/01/26 08:45:09;;;;;;;17.80;14.40;;;;;;;2.97;69.39;102404.84;5074781;28;20384;-74
2023/01/26 08:47:35;;;;;;;16.30;12.20;;;;;;;2.97;69.58;102404.84;5073144;28;20033;-74
2023/01/26 08:50:00;;;;;;;18.13;16.58;;;;;;;2.96;69.41;102403.16;5073475;28;20178;-73
2023/01/26 08:52:25;;;;;;;13.63;12.57;;;;;;;2.97;69.40;102412.84;5073038;28;20032;-74
2023/01/26 08:54:51;;;;;;;13.70;12.68;;;;;;;2.97;69.27;102415.53;5074397;28;20035;-75
2023/01/26 08:57:16;;;;;;;14.35;12.82;;;;;;;2.98;69.25;102419.03;5073099;28;20456;-75
2023/01/26 08:59:41;;;;;;;14.25;13.10;;;;;;;2.97;69.10;102415.53;5074117;28;20428;-75
2023/01/26 09:02:09;;;;;;;18.52;14.60;;;;;;;2.99;69.36;102418.03;5073833;28;20032;-75
2023/01/26 09:04:34;;;;;;;17.38;12.85;;;;;;;2.98;69.23;102414.53;5073897;28;20040;-74
2023/01/26 09:07:00;;;;;;;17.60;14.63;;;;;;;2.99;69.09;102418.84;5072743;28;20116;-74
2023/01/26 09:09:25;;;;;;;14.07;12.02;;;;;;;2.99;69.34;102416.19;5074524;28;20040;-74
2023/01/26 09:11:54;;;;;;;16.02;14.68;;;;;;;2.99;69.43;102418.84;5073837;28;20032;-74
2023/01/26 09:14:19;;;;;;;19.70;14.45;;;;;;;3.00;69.44;102425.06;5074439;28;20461;-74
2023/01/26 09:16:44;;;;;;;27.13;16.08;;;;;;;3.00;69.36;102420.56;5056249;28;20033;-73
2023/01/26 09:19:10;;;;;;;24.10;15.57;;;;;;;3.00;69.34;102423.22;5072463;28;20035;-74
2023/01/26 09:21:35;;;;;;;23.33;13.75;;;;;;;3.00;69.17;102425.88;5073050;28;20094;-73
2023/01/26 09:24:01;;;;;;;17.60;15.82;;;;;;;3.00;69.43;102425.06;5073632;28;20115;-73
2023/01/26 09:26:30;;;;;;;18.75;15.93;;;;;;;3.01;69.62;102424.88;5073967;28;20471;-74
2023/01/26 09:28:56;;;;;;;29.13;18.60;;;;;;;3.01;69.21;102422.22;5073499;28;20025;-74
2023/01/26 09:31:22;;;;;;;24.80;15.88;;;;;;;3.02;69.22;102426.59;5074010;28;20116;-74
2023/01/26 09:33:49;;;;;;;18.48;14.00;;;;;;;3.02;69.14;102420.38;5074001;28;20060;-74
2023/01/26 09:36:14;;;;;;;20.35;15.98;;;;;;;3.02;69.29;102428.38;5072653;28;20078;-74
2023/01/26 09:38:40;;;;;;;13.05;11.75;;;;;;;3.02;69.51;102434.59;5073490;28;20029;-74
2023/01/26 09:41:11;;;;;;;25.77;19.15;;;;;;;3.02;69.33;102431.06;5073318;28;20404;-77
2023/01/26 09:43:49;;;;;;;29.33;16.98;;;;;;;3.03;69.23;102430.91;5072961;28;20414;-75
2023/01/26 09:46:25;;;;;;;19.58;16.15;;;;;;;3.03;69.18;102424.75;5074080;28;20025;-75
2023/01/26 09:49:05;;;;;;;16.92;15.27;;;;;;;3.03;69.20;102424.75;5073529;28;20020;-75
2023/01/26 09:51:35;;;;;;;14.90;13.30;;;;;;;3.02;69.62;102431.06;5073367;28;20059;-74
2023/01/26 09:54:12;;;;;;;22.52;16.65;;;;;;;3.02;69.51;102431.94;5073578;28;20032;-76
2023/01/26 09:56:38;;;;;;;20.92;15.35;;;;;;;3.01;69.27;102422.22;5073427;28;20017;-74
2023/01/26 09:59:12;;;;;;;26.48;18.63;;;;;;;3.02;69.54;102431.06;5073231;28;20035;-76
2023/01/26 10:01:56;;;;;;;20.05;17.08;;;;;;;3.03;69.33;102436.25;5073370;28;20130;-75
2023/01/26 10:04:32;;;;;;;28.13;16.92;;;;;;;3.02;69.40;102436.41;5073377;28;20051;-74
2023/01/26 10:07:01;;;;;;;14.43;13.02;;;;;;;3.01;69.79;102429.41;5072792;28;20380;-75
2023/01/26 10:09:32;;;;;;;20.00;16.05;;;;;;;3.00;69.83;102427.72;5073818;28;20039;-73
2023/01/26 10:12:01;;;;;;;25.13;16.60;;;;;;;3.00;69.75;102428.56;5071938;28;20072;-74
2023/01/26 10:14:39;;;;;;;;;;;;;;;3.01;69.63;102429.41;5074091;28;20104;-76
2023/01/26 10:17:11;;;;;;;33.72;20.23;;;;;;;2.99;69.61;102429.53;5073004;28;19912;-77
2023/01/26 10:19:42;;;;;;;27.63;16.85;;;;;;;2.99;69.74;102434.03;5072013;28;20029;-74
2023/01/26 10:22:30;;;;;;;22.02;17.75;;;;;;;2.99;69.82;102434.03;5073200;28;20052;-74
2023/01/26 10:24:58;;;;;;;34.07;20.53;;;;;;;3.00;69.88;102431.22;5073540;28;20492;-74
2023/01/26 10:27:23;;;;;;;23.08;18.23;;;;;;;3.01;69.66;102429.41;5072294;28;20035;-74
2023/01/26 10:29:49;;;;;;;18.92;16.50;;;;;;;3.02;70.08;102433.72;5073084;28;20108;-74
2023/01/26 10:32:16;;;;;;;21.65;16.33;;;;;;;3.02;70.08;102439.06;5074636;28;20399;-75
2023/01/26 10:34:45;;;;;;;34.08;17.98;;;;;;;3.04;70.11;102445.09;5076183;28;20036;-73
2023/01/26 10:37:22;;;;;;;36.28;21.13;;;;;;;3.03;70.37;102435.44;5076172;28;20020;-74
2023/01/26 10:40:00;;;;;;;15.02;13.52;;;;;;;3.03;70.58;102433.59;5076864;28;20024;-74
2023/01/26 10:42:31;;;;;;;40.08;17.23;;;;;;;3.03;70.27;102428.25;5076781;28;20460;-76
2023/01/26 10:45:00;;;;;;;36.00;17.67;;;;;;;3.06;70.46;102435.13;5075119;28;20025;-75
2023/01/26 10:47:26;;;;;;;29.10;17.33;;;;;;;3.07;70.64;102435.94;5076745;28;20032;-73
2023/01/26 10:49:52;;;;;;;12.82;11.75;;;;;;;3.08;70.23;102429.63;5076645;28;20120;-76
2023/01/26 10:52:24;;;;;;;25.98;17.25;;;;;;;3.09;70.50;102429.47;5076671;28;20479;-74
2023/01/26 10:55:09;;;;;;;18.42;13.90;;;;;;;3.12;70.54;102431.81;5075148;28;20494;-75
2023/01/26 10:57:38;;;;;;;39.95;17.52;;;;;;;3.13;70.52;102433.53;5076351;28;20488;-74
2023/01/26 11:00:25;;;;;;;36.33;22.52;;;;;;;3.15;70.63;102439.56;5075219;28;20032;-74
2023/01/26 11:02:53;;;;;;;21.92;16.38;;;;;;;3.16;70.52;102435.06;5073193;28;20107;-75
2023/01/26 11:05:25;;;;;;;36.35;20.45;;;;;;;3.18;70.38;102436.56;5076265;28;20078;-75
2023/01/26 11:07:57;;;;;;;28.30;16.48;;;;;;;3.20;70.40;102439.94;5076370;28;20036;-74
2023/01/26 11:10:30;;;;;;;30.92;17.58;;;;;;;3.23;70.91;102441.47;5076404;28;20487;-74
2023/01/26 11:13:16;;;;;;;26.27;18.67;;;;;;;3.25;71.06;102445.66;5076196;28;20021;-74
2023/01/26 11:15:44;;;;;;;30.75;16.35;;;;;;;3.27;70.79;102429.47;5076480;28;20056;-75
2023/01/26 11:18:32;;;;;;;32.53;19.15;;;;;;;3.28;71.04;102433.84;5076215;28;20052;-75
2023/01/26 11:21:32;;;;;;;19.55;15.80;;;;;;;3.30;70.97;102433.66;5076195;28;20120;-74
2023/01/26 11:24:27;;;;;;;18.23;14.82;;;;;;;3.33;71.24;102438.72;5074746;28;20044;-75
2023/01/26 11:27:13;;;;;;;27.05;15.82;;;;;;;3.34;71.14;102435.03;5076486;28;20119;-76
2023/01/26 11:29:57;;;;;;;41.45;16.67;;;;;;;3.35;70.86;102436.72;5076279;28;20034;-76
2023/01/26 11:32:52;;;;;;;24.40;16.77;;;;;;;3.36;71.13;102436.56;5076318;28;20024;-75
2023/01/26 11:35:55;;;;;;;29.63;16.60;;;;;;;3.38;71.41;102442.59;5049001;28;20140;-76
2023/01/26 11:38:38;;;;;;;30.05;15.70;;;;;;;3.39;71.39;102435.44;5075534;28;20474;-75
2023/01/26 11:41:28;;;;;;;27.80;17.90;;;;;;;3.40;71.33;102434.41;5075145;28;20028;-74
2023/01/26 11:44:20;;;;;;;21.00;13.88;;;;;;;3.43;71.50;102431.47;5074163;28;20350;-76
2023/01/26 11:47:09;;;;;;;26.83;15.15;;;;;;;3.44;71.75;102420.59;5076041;28;20027;-75
2023/01/26 11:49:53;;;;;;;16.88;13.50;;;;;;;3.46;71.40;102421.28;5075630;28;20039;-75
2023/01/26 11:52:46;;;;;;;17.75;15.32;;;;;;;3.47;71.30;102420.28;5075703;28;20028;-75
2023/01/26 11:55:23;;;;;;;25.13;15.98;;;;;;;3.51;71.64;102420.00;5075454;28;20570;-75
2023/01/26 11:58:13;;;;;;;14.82;13.02;;;;;;;3.52;71.70;102413.66;5075558;28;20063;-74
2023/01/26 12:00:54;;;;;;;12.93;11.63;;;;;;;3.55;71.76;102419.50;5075434;28;20115;-75
2023/01/26 12:03:38;;;;;;;32.90;16.85;;;;;;;3.58;71.92;102415.69;5075410;28;20480;-76
2023/01/26 12:06:07;;;;;;;26.45;16.42;;;;;;;3.59;71.93;102404.88;5075180;28;20032;-76
2023/01/26 12:08:40;;;;;;;;;;;;;;;3.62;71.91;102409.88;5075620;28;20520;-76
2023/01/26 12:11:21;;;;;;;32.90;14.55;;;;;;;3.63;72.07;102408.91;5075726;28;19919;-75